sensor_id;sensor_type;location;lat;lon;timestamp;P1;durP1;ratioP1;P2;durP2;ratioP2
11829;SDS011;5972;42.134;24.718;2023-08-06T00:02:25;8.10;;;5.50;;
11829;SDS011;5972;42.134;24.718;2023-08-06T00:04:51;9.30;;;5.38;;
11829;SDS011;5972;42.134;24.718;2023-08-06T00:07:18;7.97;;;5.50;;
11829;SDS011;5972;42.134;24.718;2023-08-06T00:09:45;9.88;;;5.90;;
11829;SDS011;5972;42.134;24.718;2023-08-06T00:12:11;6.55;;;5.10;;
11829;SDS011;5972;42.134;24.718;2023-08-06T00:14:40;11.90;;;5.82;;
11829;SDS011;5972;42.134;24.718;2023-08-06T00:17:07;8.60;;;5.80;;
11829;SDS011;5972;42.134;24.718;2023-08-06T00:19:34;11.85;;;6.18;;
11829;SDS011;5972;42.134;24.718;2023-08-06T00:22:01;8.68;;;5.57;;
11829;SDS011;5972;42.134;24.718;2023-08-06T00:24:28;9.48;;;5.93;;
11829;SDS011;5972;42.134;24.718;2023-08-06T00:29:31;9.10;;;5.60;;
11829;SDS011;5972;42.134;24.718;2023-08-06T00:31:59;9.23;;;6.00;;
11829;SDS011;5972;42.134;24.718;2023-08-06T00:34:26;7.57;;;5.63;;
11829;SDS011;5972;42.134;24.718;2023-08-06T00:36:53;9.50;;;5.72;;
11829;SDS011;5972;42.134;24.718;2023-08-06T00:42:05;6.65;;;5.68;;
11829;SDS011;5972;42.134;24.718;2023-08-06T00:47:06;7.28;;;6.05;;
11829;SDS011;5972;42.134;24.718;2023-08-06T00:49:35;8.85;;;6.03;;
11829;SDS011;5972;42.134;24.718;2023-08-06T00:52:02;9.57;;;5.90;;
11829;SDS011;5972;42.134;24.718;2023-08-06T00:54:30;11.85;;;6.30;;
11829;SDS011;5972;42.134;24.718;2023-08-06T00:56:58;10.15;;;6.15;;
11829;SDS011;5972;42.134;24.718;2023-08-06T00:59:25;9.68;;;5.82;;
11829;SDS011;5972;42.134;24.718;2023-08-06T01:01:53;10.07;;;6.10;;
11829;SDS011;5972;42.134;24.718;2023-08-06T01:04:21;10.50;;;6.43;;
11829;SDS011;5972;42.134;24.718;2023-08-06T01:06:52;10.68;;;6.60;;
11829;SDS011;5972;42.134;24.718;2023-08-06T01:09:31;7.63;;;5.93;;
11829;SDS011;5972;42.134;24.718;2023-08-06T01:12:09;11.15;;;6.43;;
11829;SDS011;5972;42.134;24.718;2023-08-06T01:14:45;8.80;;;6.50;;
11829;SDS011;5972;42.134;24.718;2023-08-06T01:17:29;13.15;;;6.53;;
11829;SDS011;5972;42.134;24.718;2023-08-06T01:19:58;9.32;;;6.70;;
11829;SDS011;5972;42.134;24.718;2023-08-06T01:22:26;9.20;;;6.35;;
11829;SDS011;5972;42.134;24.718;2023-08-06T01:24:53;9.38;;;6.35;;
11829;SDS011;5972;42.134;24.718;2023-08-06T01:27:22;7.25;;;6.30;;
11829;SDS011;5972;42.134;24.718;2023-08-06T01:29:56;12.05;;;6.38;;
11829;SDS011;5972;42.134;24.718;2023-08-06T01:32:34;14.85;;;6.25;;
11829;SDS011;5972;42.134;24.718;2023-08-06T01:35:02;12.00;;;6.95;;
11829;SDS011;5972;42.134;24.718;2023-08-06T01:37:32;7.10;;;6.30;;
11829;SDS011;5972;42.134;24.718;2023-08-06T01:39:59;10.43;;;6.93;;
11829;SDS011;5972;42.134;24.718;2023-08-06T01:42:26;10.82;;;6.80;;
11829;SDS011;5972;42.134;24.718;2023-08-06T01:44:53;7.95;;;6.18;;
11829;SDS011;5972;42.134;24.718;2023-08-06T01:47:20;9.02;;;6.53;;
11829;SDS011;5972;42.134;24.718;2023-08-06T01:49:46;7.47;;;6.28;;
11829;SDS011;5972;42.134;24.718;2023-08-06T01:52:13;9.70;;;6.70;;
11829;SDS011;5972;42.134;24.718;2023-08-06T01:54:41;12.20;;;6.90;;
11829;SDS011;5972;42.134;24.718;2023-08-06T01:57:08;12.75;;;7.30;;
11829;SDS011;5972;42.134;24.718;2023-08-06T01:59:35;10.07;;;6.60;;
11829;SDS011;5972;42.134;24.718;2023-08-06T02:02:02;9.95;;;6.75;;
11829;SDS011;5972;42.134;24.718;2023-08-06T02:04:29;9.75;;;6.70;;
11829;SDS011;5972;42.134;24.718;2023-08-06T02:06:56;11.43;;;6.40;;
11829;SDS011;5972;42.134;24.718;2023-08-06T02:09:22;11.45;;;6.43;;
11829;SDS011;5972;42.134;24.718;2023-08-06T02:11:50;9.30;;;6.75;;
11829;SDS011;5972;42.134;24.718;2023-08-06T02:14:17;8.00;;;7.20;;
11829;SDS011;5972;42.134;24.718;2023-08-06T02:16:44;12.50;;;7.00;;
11829;SDS011;5972;42.134;24.718;2023-08-06T02:19:11;12.18;;;7.03;;
11829;SDS011;5972;42.134;24.718;2023-08-06T02:21:38;11.95;;;7.13;;
11829;SDS011;5972;42.134;24.718;2023-08-06T02:24:04;11.50;;;7.53;;
11829;SDS011;5972;42.134;24.718;2023-08-06T02:26:31;10.30;;;8.20;;
11829;SDS011;5972;42.134;24.718;2023-08-06T02:28:59;10.48;;;8.48;;
11829;SDS011;5972;42.134;24.718;2023-08-06T02:31:26;10.52;;;7.55;;
11829;SDS011;5972;42.134;24.718;2023-08-06T02:33:53;10.73;;;8.40;;
11829;SDS011;5972;42.134;24.718;2023-08-06T02:36:20;11.10;;;8.07;;
11829;SDS011;5972;42.134;24.718;2023-08-06T02:38:47;13.93;;;8.00;;
11829;SDS011;5972;42.134;24.718;2023-08-06T02:41:13;10.35;;;8.88;;
11829;SDS011;5972;42.134;24.718;2023-08-06T02:43:40;11.27;;;9.15;;
11829;SDS011;5972;42.134;24.718;2023-08-06T02:46:08;11.80;;;9.00;;
11829;SDS011;5972;42.134;24.718;2023-08-06T02:48:35;11.55;;;10.30;;
11829;SDS011;5972;42.134;24.718;2023-08-06T02:51:02;12.77;;;10.82;;
11829;SDS011;5972;42.134;24.718;2023-08-06T02:53:29;18.42;;;10.93;;
11829;SDS011;5972;42.134;24.718;2023-08-06T02:55:56;13.35;;;10.43;;
11829;SDS011;5972;42.134;24.718;2023-08-06T02:58:23;12.35;;;10.43;;
11829;SDS011;5972;42.134;24.718;2023-08-06T03:01:00;15.13;;;10.27;;
11829;SDS011;5972;42.134;24.718;2023-08-06T03:03:30;14.55;;;10.75;;
11829;SDS011;5972;42.134;24.718;2023-08-06T03:05:57;14.90;;;10.65;;
11829;SDS011;5972;42.134;24.718;2023-08-06T03:08:22;12.77;;;9.63;;
11829;SDS011;5972;42.134;24.718;2023-08-06T03:10:49;14.63;;;10.05;;
11829;SDS011;5972;42.134;24.718;2023-08-06T03:13:16;18.23;;;10.10;;
11829;SDS011;5972;42.134;24.718;2023-08-06T03:15:44;11.05;;;9.85;;
11829;SDS011;5972;42.134;24.718;2023-08-06T03:18:18;13.13;;;9.95;;
11829;SDS011;5972;42.134;24.718;2023-08-06T03:20:46;14.45;;;10.15;;
11829;SDS011;5972;42.134;24.718;2023-08-06T03:23:13;11.82;;;10.60;;
11829;SDS011;5972;42.134;24.718;2023-08-06T03:25:40;12.63;;;11.35;;
11829;SDS011;5972;42.134;24.718;2023-08-06T03:28:07;12.85;;;11.07;;
11829;SDS011;5972;42.134;24.718;2023-08-06T03:30:34;13.45;;;11.27;;
11829;SDS011;5972;42.134;24.718;2023-08-06T03:33:01;15.68;;;12.52;;
11829;SDS011;5972;42.134;24.718;2023-08-06T03:35:27;14.27;;;12.57;;
11829;SDS011;5972;42.134;24.718;2023-08-06T03:37:56;14.18;;;12.55;;
11829;SDS011;5972;42.134;24.718;2023-08-06T03:40:22;13.82;;;12.25;;
11829;SDS011;5972;42.134;24.718;2023-08-06T03:42:49;15.65;;;12.98;;
11829;SDS011;5972;42.134;24.718;2023-08-06T03:45:16;23.83;;;13.40;;
11829;SDS011;5972;42.134;24.718;2023-08-06T03:47:43;19.13;;;13.75;;
11829;SDS011;5972;42.134;24.718;2023-08-06T03:50:09;15.18;;;13.02;;
11829;SDS011;5972;42.134;24.718;2023-08-06T03:52:36;17.30;;;13.32;;
11829;SDS011;5972;42.134;24.718;2023-08-06T03:55:05;15.48;;;13.70;;
11829;SDS011;5972;42.134;24.718;2023-08-06T03:57:32;17.63;;;14.43;;
11829;SDS011;5972;42.134;24.718;2023-08-06T03:59:58;15.88;;;14.20;;
11829;SDS011;5972;42.134;24.718;2023-08-06T04:02:26;17.00;;;13.60;;
11829;SDS011;5972;42.134;24.718;2023-08-06T04:04:53;19.40;;;15.00;;
11829;SDS011;5972;42.134;24.718;2023-08-06T04:07:20;17.55;;;15.48;;
11829;SDS011;5972;42.134;24.718;2023-08-06T04:09:53;17.08;;;15.32;;
11829;SDS011;5972;42.134;24.718;2023-08-06T04:12:22;18.70;;;15.70;;
11829;SDS011;5972;42.134;24.718;2023-08-06T04:14:49;17.27;;;15.50;;
11829;SDS011;5972;42.134;24.718;2023-08-06T04:17:17;16.98;;;15.50;;
11829;SDS011;5972;42.134;24.718;2023-08-06T04:19:45;20.67;;;16.27;;
11829;SDS011;5972;42.134;24.718;2023-08-06T04:22:13;19.52;;;15.60;;
11829;SDS011;5972;42.134;24.718;2023-08-06T04:24:41;17.70;;;16.02;;
11829;SDS011;5972;42.134;24.718;2023-08-06T04:27:08;17.60;;;16.02;;
11829;SDS011;5972;42.134;24.718;2023-08-06T04:29:36;18.08;;;16.23;;
11829;SDS011;5972;42.134;24.718;2023-08-06T04:32:05;17.90;;;15.88;;
11829;SDS011;5972;42.134;24.718;2023-08-06T04:34:33;18.88;;;16.92;;
11829;SDS011;5972;42.134;24.718;2023-08-06T04:37:01;18.15;;;16.10;;
11829;SDS011;5972;42.134;24.718;2023-08-06T04:39:28;19.33;;;17.23;;
11829;SDS011;5972;42.134;24.718;2023-08-06T04:41:55;17.67;;;15.98;;
11829;SDS011;5972;42.134;24.718;2023-08-06T04:44:22;18.27;;;16.45;;
11829;SDS011;5972;42.134;24.718;2023-08-06T04:46:51;18.83;;;17.02;;
11829;SDS011;5972;42.134;24.718;2023-08-06T04:49:18;20.02;;;17.92;;
11829;SDS011;5972;42.134;24.718;2023-08-06T04:51:45;18.27;;;16.50;;
11829;SDS011;5972;42.134;24.718;2023-08-06T04:54:12;17.92;;;16.23;;
11829;SDS011;5972;42.134;24.718;2023-08-06T04:56:38;17.42;;;15.77;;
11829;SDS011;5972;42.134;24.718;2023-08-06T04:59:08;18.83;;;16.15;;
11829;SDS011;5972;42.134;24.718;2023-08-06T05:01:35;18.17;;;16.30;;
11829;SDS011;5972;42.134;24.718;2023-08-06T05:04:03;18.50;;;16.35;;
11829;SDS011;5972;42.134;24.718;2023-08-06T05:06:30;17.90;;;16.15;;
11829;SDS011;5972;42.134;24.718;2023-08-06T05:08:57;18.73;;;16.73;;
11829;SDS011;5972;42.134;24.718;2023-08-06T05:11:24;18.88;;;16.80;;
11829;SDS011;5972;42.134;24.718;2023-08-06T05:13:50;19.70;;;16.38;;
11829;SDS011;5972;42.134;24.718;2023-08-06T05:16:17;18.48;;;16.60;;
11829;SDS011;5972;42.134;24.718;2023-08-06T05:18:44;17.70;;;15.98;;
11829;SDS011;5972;42.134;24.718;2023-08-06T05:21:12;14.38;;;11.80;;
11829;SDS011;5972;42.134;24.718;2023-08-06T05:23:39;15.02;;;9.82;;
11829;SDS011;5972;42.134;24.718;2023-08-06T05:26:06;11.35;;;6.90;;
11829;SDS011;5972;42.134;24.718;2023-08-06T05:28:32;10.30;;;5.90;;
11829;SDS011;5972;42.134;24.718;2023-08-06T05:31:02;6.53;;;5.50;;
11829;SDS011;5972;42.134;24.718;2023-08-06T05:33:29;11.98;;;6.20;;
11829;SDS011;5972;42.134;24.718;2023-08-06T05:35:57;11.27;;;5.93;;
11829;SDS011;5972;42.134;24.718;2023-08-06T05:38:25;11.25;;;5.78;;
11829;SDS011;5972;42.134;24.718;2023-08-06T05:40:52;7.57;;;5.25;;
11829;SDS011;5972;42.134;24.718;2023-08-06T05:43:18;9.98;;;5.75;;
11829;SDS011;5972;42.134;24.718;2023-08-06T05:45:45;7.90;;;5.32;;
11829;SDS011;5972;42.134;24.718;2023-08-06T05:48:12;9.55;;;5.97;;
11829;SDS011;5972;42.134;24.718;2023-08-06T05:50:39;8.90;;;5.95;;
11829;SDS011;5972;42.134;24.718;2023-08-06T05:53:12;11.70;;;6.50;;
11829;SDS011;5972;42.134;24.718;2023-08-06T05:55:40;12.23;;;6.20;;
11829;SDS011;5972;42.134;24.718;2023-08-06T05:58:14;11.15;;;5.68;;
11829;SDS011;5972;42.134;24.718;2023-08-06T06:00:40;12.18;;;5.95;;
11829;SDS011;5972;42.134;24.718;2023-08-06T06:03:07;9.38;;;5.68;;
11829;SDS011;5972;42.134;24.718;2023-08-06T06:05:34;9.68;;;5.80;;
11829;SDS011;5972;42.134;24.718;2023-08-06T06:08:03;12.63;;;6.40;;
11829;SDS011;5972;42.134;24.718;2023-08-06T06:10:30;8.75;;;6.45;;
11829;SDS011;5972;42.134;24.718;2023-08-06T06:12:58;7.00;;;6.30;;
11829;SDS011;5972;42.134;24.718;2023-08-06T06:15:25;10.23;;;6.30;;
11829;SDS011;5972;42.134;24.718;2023-08-06T06:17:51;6.70;;;6.13;;
11829;SDS011;5972;42.134;24.718;2023-08-06T06:20:18;8.82;;;6.55;;
11829;SDS011;5972;42.134;24.718;2023-08-06T06:22:45;8.85;;;6.45;;
11829;SDS011;5972;42.134;24.718;2023-08-06T06:25:11;9.13;;;6.40;;
11829;SDS011;5972;42.134;24.718;2023-08-06T06:27:39;9.60;;;6.63;;
11829;SDS011;5972;42.134;24.718;2023-08-06T06:30:08;7.97;;;6.40;;
11829;SDS011;5972;42.134;24.718;2023-08-06T06:32:36;8.93;;;6.50;;
11829;SDS011;5972;42.134;24.718;2023-08-06T06:35:05;9.65;;;6.88;;
11829;SDS011;5972;42.134;24.718;2023-08-06T06:37:32;12.23;;;6.68;;
11829;SDS011;5972;42.134;24.718;2023-08-06T06:39:59;9.95;;;7.28;;
11829;SDS011;5972;42.134;24.718;2023-08-06T06:42:27;10.55;;;6.85;;
11829;SDS011;5972;42.134;24.718;2023-08-06T06:44:54;8.10;;;7.22;;
11829;SDS011;5972;42.134;24.718;2023-08-06T06:47:23;8.43;;;7.63;;
11829;SDS011;5972;42.134;24.718;2023-08-06T06:49:49;10.80;;;7.53;;
11829;SDS011;5972;42.134;24.718;2023-08-06T06:52:16;8.45;;;7.07;;
11829;SDS011;5972;42.134;24.718;2023-08-06T06:54:43;9.15;;;7.13;;
11829;SDS011;5972;42.134;24.718;2023-08-06T06:57:10;7.90;;;7.03;;
11829;SDS011;5972;42.134;24.718;2023-08-06T06:59:36;7.60;;;6.90;;
11829;SDS011;5972;42.134;24.718;2023-08-06T07:02:05;8.80;;;6.80;;
11829;SDS011;5972;42.134;24.718;2023-08-06T07:04:33;11.70;;;6.85;;
11829;SDS011;5972;42.134;24.718;2023-08-06T07:07:00;7.10;;;6.22;;
11829;SDS011;5972;42.134;24.718;2023-08-06T07:09:26;11.45;;;6.43;;
11829;SDS011;5972;42.134;24.718;2023-08-06T07:11:53;7.88;;;6.35;;
11829;SDS011;5972;42.134;24.718;2023-08-06T07:14:20;10.25;;;6.88;;
11829;SDS011;5972;42.134;24.718;2023-08-06T07:16:47;8.00;;;7.25;;
11829;SDS011;5972;42.134;24.718;2023-08-06T07:19:13;9.55;;;7.22;;
11829;SDS011;5972;42.134;24.718;2023-08-06T07:21:41;7.72;;;6.95;;
11829;SDS011;5972;42.134;24.718;2023-08-06T07:24:08;9.57;;;6.65;;
11829;SDS011;5972;42.134;24.718;2023-08-06T07:26:35;9.60;;;7.47;;
11829;SDS011;5972;42.134;24.718;2023-08-06T07:29:02;8.63;;;6.95;;
11829;SDS011;5972;42.134;24.718;2023-08-06T07:31:29;9.27;;;7.53;;
11829;SDS011;5972;42.134;24.718;2023-08-06T07:33:56;9.90;;;7.38;;
11829;SDS011;5972;42.134;24.718;2023-08-06T07:36:22;11.05;;;7.50;;
11829;SDS011;5972;42.134;24.718;2023-08-06T07:38:50;8.77;;;7.82;;
11829;SDS011;5972;42.134;24.718;2023-08-06T07:41:20;9.13;;;7.82;;
11829;SDS011;5972;42.134;24.718;2023-08-06T07:43:47;9.73;;;7.80;;
11829;SDS011;5972;42.134;24.718;2023-08-06T07:46:14;8.90;;;7.38;;
11829;SDS011;5972;42.134;24.718;2023-08-06T07:48:41;12.73;;;8.50;;
11829;SDS011;5972;42.134;24.718;2023-08-06T07:51:08;11.98;;;7.60;;
11829;SDS011;5972;42.134;24.718;2023-08-06T07:53:35;8.80;;;7.68;;
11829;SDS011;5972;42.134;24.718;2023-08-06T07:56:03;7.97;;;7.28;;
11829;SDS011;5972;42.134;24.718;2023-08-06T07:58:30;11.70;;;8.52;;
11829;SDS011;5972;42.134;24.718;2023-08-06T08:00:57;12.73;;;8.02;;
11829;SDS011;5972;42.134;24.718;2023-08-06T08:03:23;10.43;;;8.98;;
11829;SDS011;5972;42.134;24.718;2023-08-06T08:05:50;9.20;;;7.93;;
11829;SDS011;5972;42.134;24.718;2023-08-06T08:08:22;9.30;;;8.30;;
11829;SDS011;5972;42.134;24.718;2023-08-06T08:10:49;8.82;;;7.78;;
11829;SDS011;5972;42.134;24.718;2023-08-06T08:13:17;8.75;;;7.80;;
11829;SDS011;5972;42.134;24.718;2023-08-06T08:15:44;13.10;;;8.65;;
11829;SDS011;5972;42.134;24.718;2023-08-06T08:18:11;10.85;;;8.18;;
11829;SDS011;5972;42.134;24.718;2023-08-06T08:20:37;13.10;;;8.40;;
11829;SDS011;5972;42.134;24.718;2023-08-06T08:23:04;9.68;;;8.35;;
11829;SDS011;5972;42.134;24.718;2023-08-06T08:25:31;11.30;;;8.52;;
11829;SDS011;5972;42.134;24.718;2023-08-06T08:27:59;11.18;;;8.55;;
11829;SDS011;5972;42.134;24.718;2023-08-06T08:30:27;11.75;;;9.32;;
11829;SDS011;5972;42.134;24.718;2023-08-06T08:32:54;11.57;;;10.48;;
11829;SDS011;5972;42.134;24.718;2023-08-06T08:35:20;11.43;;;10.23;;
11829;SDS011;5972;42.134;24.718;2023-08-06T08:37:47;13.30;;;9.60;;
11829;SDS011;5972;42.134;24.718;2023-08-06T08:40:14;9.85;;;8.95;;
11829;SDS011;5972;42.134;24.718;2023-08-06T08:42:41;8.77;;;7.50;;
11829;SDS011;5972;42.134;24.718;2023-08-06T08:45:11;9.20;;;7.72;;
11829;SDS011;5972;42.134;24.718;2023-08-06T08:47:41;7.75;;;6.95;;
11829;SDS011;5972;42.134;24.718;2023-08-06T08:50:09;8.73;;;7.57;;
11829;SDS011;5972;42.134;24.718;2023-08-06T08:52:38;10.80;;;8.10;;
11829;SDS011;5972;42.134;24.718;2023-08-06T08:55:07;9.32;;;8.43;;
11829;SDS011;5972;42.134;24.718;2023-08-06T08:57:35;8.77;;;7.93;;
11829;SDS011;5972;42.134;24.718;2023-08-06T09:00:02;10.63;;;8.20;;
11829;SDS011;5972;42.134;24.718;2023-08-06T09:02:29;9.40;;;8.40;;
11829;SDS011;5972;42.134;24.718;2023-08-06T09:05:00;8.15;;;7.35;;
11829;SDS011;5972;42.134;24.718;2023-08-06T09:07:29;10.93;;;7.70;;
11829;SDS011;5972;42.134;24.718;2023-08-06T09:09:59;11.20;;;7.40;;
11829;SDS011;5972;42.134;24.718;2023-08-06T09:12:29;7.05;;;6.45;;
11829;SDS011;5972;42.134;24.718;2023-08-06T09:14:56;6.35;;;5.68;;
11829;SDS011;5972;42.134;24.718;2023-08-06T09:17:23;5.80;;;5.32;;
11829;SDS011;5972;42.134;24.718;2023-08-06T09:19:50;5.95;;;5.00;;
11829;SDS011;5972;42.134;24.718;2023-08-06T09:22:18;4.60;;;4.20;;
11829;SDS011;5972;42.134;24.718;2023-08-06T09:24:45;4.78;;;4.32;;
11829;SDS011;5972;42.134;24.718;2023-08-06T09:27:12;5.55;;;4.10;;
11829;SDS011;5972;42.134;24.718;2023-08-06T09:29:40;6.10;;;4.60;;
11829;SDS011;5972;42.134;24.718;2023-08-06T09:32:08;5.32;;;4.82;;
11829;SDS011;5972;42.134;24.718;2023-08-06T09:34:35;3.78;;;3.47;;
11829;SDS011;5972;42.134;24.718;2023-08-06T09:37:04;4.28;;;3.53;;
11829;SDS011;5972;42.134;24.718;2023-08-06T09:39:32;4.80;;;3.40;;
11829;SDS011;5972;42.134;24.718;2023-08-06T09:42:00;4.70;;;4.00;;
11829;SDS011;5972;42.134;24.718;2023-08-06T09:44:28;5.30;;;3.90;;
11829;SDS011;5972;42.134;24.718;2023-08-06T09:46:56;3.65;;;3.45;;
11829;SDS011;5972;42.134;24.718;2023-08-06T09:49:25;3.50;;;3.30;;
11829;SDS011;5972;42.134;24.718;2023-08-06T09:51:53;4.05;;;3.75;;
11829;SDS011;5972;42.134;24.718;2023-08-06T09:54:22;4.30;;;4.00;;
11829;SDS011;5972;42.134;24.718;2023-08-06T09:56:50;5.30;;;4.90;;
11829;SDS011;5972;42.134;24.718;2023-08-06T09:59:17;6.60;;;6.00;;
11829;SDS011;5972;42.134;24.718;2023-08-06T10:01:45;6.40;;;5.82;;
11829;SDS011;5972;42.134;24.718;2023-08-06T10:04:12;6.93;;;6.32;;
11829;SDS011;5972;42.134;24.718;2023-08-06T10:06:42;7.38;;;6.60;;
11829;SDS011;5972;42.134;24.718;2023-08-06T10:09:09;6.93;;;6.35;;
11829;SDS011;5972;42.134;24.718;2023-08-06T10:11:36;6.15;;;5.65;;
11829;SDS011;5972;42.134;24.718;2023-08-06T10:14:05;6.60;;;6.10;;
11829;SDS011;5972;42.134;24.718;2023-08-06T10:16:34;6.30;;;5.70;;
11829;SDS011;5972;42.134;24.718;2023-08-06T10:19:03;6.60;;;6.00;;
11829;SDS011;5972;42.134;24.718;2023-08-06T10:21:31;5.72;;;5.25;;
11829;SDS011;5972;42.134;24.718;2023-08-06T10:23:58;6.32;;;5.70;;
11829;SDS011;5972;42.134;24.718;2023-08-06T10:26:26;5.38;;;4.97;;
11829;SDS011;5972;42.134;24.718;2023-08-06T10:28:53;5.40;;;5.00;;
11829;SDS011;5972;42.134;24.718;2023-08-06T10:31:29;6.00;;;4.90;;
11829;SDS011;5972;42.134;24.718;2023-08-06T10:34:32;5.32;;;4.70;;
11829;SDS011;5972;42.134;24.718;2023-08-06T10:37:22;6.03;;;5.50;;
11829;SDS011;5972;42.134;24.718;2023-08-06T10:39:50;5.53;;;5.03;;
11829;SDS011;5972;42.134;24.718;2023-08-06T10:42:26;6.00;;;5.05;;
11829;SDS011;5972;42.134;24.718;2023-08-06T10:45:13;6.60;;;4.82;;
11829;SDS011;5972;42.134;24.718;2023-08-06T10:47:44;4.75;;;4.45;;
11829;SDS011;5972;42.134;24.718;2023-08-06T10:50:12;5.45;;;4.57;;
11829;SDS011;5972;42.134;24.718;2023-08-06T10:52:41;4.28;;;3.97;;
11829;SDS011;5972;42.134;24.718;2023-08-06T10:55:09;4.80;;;4.38;;
11829;SDS011;5972;42.134;24.718;2023-08-06T10:57:36;6.07;;;4.43;;
11829;SDS011;5972;42.134;24.718;2023-08-06T11:00:04;4.20;;;3.90;;
11829;SDS011;5972;42.134;24.718;2023-08-06T11:02:33;4.75;;;4.35;;
11829;SDS011;5972;42.134;24.718;2023-08-06T11:05:05;4.40;;;4.00;;
11829;SDS011;5972;42.134;24.718;2023-08-06T11:07:33;4.13;;;3.83;;
11829;SDS011;5972;42.134;24.718;2023-08-06T11:10:03;4.28;;;3.85;;
11829;SDS011;5972;42.134;24.718;2023-08-06T11:12:30;3.85;;;3.65;;
11829;SDS011;5972;42.134;24.718;2023-08-06T11:14:57;4.20;;;3.80;;
11829;SDS011;5972;42.134;24.718;2023-08-06T11:17:24;4.05;;;3.85;;
11829;SDS011;5972;42.134;24.718;2023-08-06T11:19:51;4.80;;;3.40;;
11829;SDS011;5972;42.134;24.718;2023-08-06T11:22:20;4.50;;;4.10;;
11829;SDS011;5972;42.134;24.718;2023-08-06T11:24:47;4.78;;;3.78;;
11829;SDS011;5972;42.134;24.718;2023-08-06T11:27:14;4.00;;;3.70;;
11829;SDS011;5972;42.134;24.718;2023-08-06T11:29:41;4.45;;;3.63;;
11829;SDS011;5972;42.134;24.718;2023-08-06T11:32:08;5.57;;;3.80;;
11829;SDS011;5972;42.134;24.718;2023-08-06T11:34:36;3.80;;;3.50;;
11829;SDS011;5972;42.134;24.718;2023-08-06T11:37:03;4.43;;;3.30;;
11829;SDS011;5972;42.134;24.718;2023-08-06T11:39:32;3.47;;;3.28;;
11829;SDS011;5972;42.134;24.718;2023-08-06T11:42:02;3.35;;;3.03;;
11829;SDS011;5972;42.134;24.718;2023-08-06T11:44:29;5.53;;;3.33;;
11829;SDS011;5972;42.134;24.718;2023-08-06T11:46:57;3.58;;;3.25;;
11829;SDS011;5972;42.134;24.718;2023-08-06T11:49:38;3.50;;;3.20;;
11829;SDS011;5972;42.134;24.718;2023-08-06T11:52:08;3.28;;;3.08;;
11829;SDS011;5972;42.134;24.718;2023-08-06T11:54:37;3.75;;;2.90;;
11829;SDS011;5972;42.134;24.718;2023-08-06T11:57:05;3.15;;;2.75;;
11829;SDS011;5972;42.134;24.718;2023-08-06T11:59:32;2.72;;;2.53;;
11829;SDS011;5972;42.134;24.718;2023-08-06T12:02:00;3.08;;;2.42;;
11829;SDS011;5972;42.134;24.718;2023-08-06T12:04:27;2.10;;;1.92;;
11829;SDS011;5972;42.134;24.718;2023-08-06T12:06:54;2.70;;;2.50;;
11829;SDS011;5972;42.134;24.718;2023-08-06T12:09:21;2.65;;;2.45;;
11829;SDS011;5972;42.134;24.718;2023-08-06T12:11:49;2.60;;;2.40;;
11829;SDS011;5972;42.134;24.718;2023-08-06T12:14:16;3.00;;;2.70;;
11829;SDS011;5972;42.134;24.718;2023-08-06T12:16:42;3.85;;;2.70;;
11829;SDS011;5972;42.134;24.718;2023-08-06T12:19:09;2.63;;;2.42;;
11829;SDS011;5972;42.134;24.718;2023-08-06T12:21:36;4.53;;;2.58;;
11829;SDS011;5972;42.134;24.718;2023-08-06T12:24:03;2.45;;;2.28;;
11829;SDS011;5972;42.134;24.718;2023-08-06T12:26:31;2.60;;;2.40;;
11829;SDS011;5972;42.134;24.718;2023-08-06T12:28:59;6.28;;;2.22;;
11829;SDS011;5972;42.134;24.718;2023-08-06T12:31:26;4.03;;;2.53;;
11829;SDS011;5972;42.134;24.718;2023-08-06T12:33:53;3.67;;;2.15;;
11829;SDS011;5972;42.134;24.718;2023-08-06T12:36:20;2.20;;;2.00;;
11829;SDS011;5972;42.134;24.718;2023-08-06T12:38:46;2.65;;;2.45;;
11829;SDS011;5972;42.134;24.718;2023-08-06T12:41:13;2.67;;;2.47;;
11829;SDS011;5972;42.134;24.718;2023-08-06T12:43:40;2.38;;;2.20;;
11829;SDS011;5972;42.134;24.718;2023-08-06T12:46:08;2.88;;;2.10;;
11829;SDS011;5972;42.134;24.718;2023-08-06T12:48:35;2.25;;;2.10;;
11829;SDS011;5972;42.134;24.718;2023-08-06T12:51:02;2.45;;;2.25;;
11829;SDS011;5972;42.134;24.718;2023-08-06T12:53:29;2.63;;;2.15;;
11829;SDS011;5972;42.134;24.718;2023-08-06T12:55:56;2.30;;;2.08;;
11829;SDS011;5972;42.134;24.718;2023-08-06T12:58:22;2.53;;;2.20;;
11829;SDS011;5972;42.134;24.718;2023-08-06T13:00:49;2.95;;;2.10;;
11829;SDS011;5972;42.134;24.718;2023-08-06T13:03:17;5.80;;;2.33;;
11829;SDS011;5972;42.134;24.718;2023-08-06T13:05:44;2.97;;;2.20;;
11829;SDS011;5972;42.134;24.718;2023-08-06T13:08:11;2.13;;;2.03;;
11829;SDS011;5972;42.134;24.718;2023-08-06T13:10:37;3.38;;;2.20;;
11829;SDS011;5972;42.134;24.718;2023-08-06T13:13:04;2.03;;;1.80;;
11829;SDS011;5972;42.134;24.718;2023-08-06T13:15:31;3.40;;;2.20;;
11829;SDS011;5972;42.134;24.718;2023-08-06T13:17:58;2.85;;;2.00;;
11829;SDS011;5972;42.134;24.718;2023-08-06T13:20:26;5.90;;;2.22;;
11829;SDS011;5972;42.134;24.718;2023-08-06T13:22:54;2.58;;;2.15;;
11829;SDS011;5972;42.134;24.718;2023-08-06T13:25:21;3.75;;;2.45;;
11829;SDS011;5972;42.134;24.718;2023-08-06T13:27:48;2.40;;;2.20;;
11829;SDS011;5972;42.134;24.718;2023-08-06T13:30:15;3.28;;;2.20;;
11829;SDS011;5972;42.134;24.718;2023-08-06T13:32:43;10.68;;;2.88;;
11829;SDS011;5972;42.134;24.718;2023-08-06T13:35:09;3.15;;;2.47;;
11829;SDS011;5972;42.134;24.718;2023-08-06T13:37:38;3.20;;;2.22;;
11829;SDS011;5972;42.134;24.718;2023-08-06T13:40:05;2.53;;;2.33;;
11829;SDS011;5972;42.134;24.718;2023-08-06T13:42:33;2.10;;;1.80;;
11829;SDS011;5972;42.134;24.718;2023-08-06T13:45:01;4.15;;;1.85;;
11829;SDS011;5972;42.134;24.718;2023-08-06T13:47:28;2.00;;;1.90;;
11829;SDS011;5972;42.134;24.718;2023-08-06T13:49:55;2.00;;;1.90;;
11829;SDS011;5972;42.134;24.718;2023-08-06T13:52:22;2.50;;;1.90;;
11829;SDS011;5972;42.134;24.718;2023-08-06T13:54:50;2.00;;;1.80;;
11829;SDS011;5972;42.134;24.718;2023-08-06T13:57:17;5.65;;;1.80;;
11829;SDS011;5972;42.134;24.718;2023-08-06T13:59:44;4.20;;;1.80;;
11829;SDS011;5972;42.134;24.718;2023-08-06T14:02:10;1.80;;;1.70;;
11829;SDS011;5972;42.134;24.718;2023-08-06T14:04:37;2.63;;;1.60;;
11829;SDS011;5972;42.134;24.718;2023-08-06T14:07:05;4.00;;;1.70;;
11829;SDS011;5972;42.134;24.718;2023-08-06T14:09:32;2.47;;;2.08;;
11829;SDS011;5972;42.134;24.718;2023-08-06T14:12:00;3.63;;;1.60;;
11829;SDS011;5972;42.134;24.718;2023-08-06T14:14:28;2.33;;;1.80;;
11829;SDS011;5972;42.134;24.718;2023-08-06T14:16:54;1.88;;;1.77;;
11829;SDS011;5972;42.134;24.718;2023-08-06T14:19:21;2.65;;;1.70;;
11829;SDS011;5972;42.134;24.718;2023-08-06T14:21:49;2.45;;;1.73;;
11829;SDS011;5972;42.134;24.718;2023-08-06T14:24:15;2.25;;;1.80;;
11829;SDS011;5972;42.134;24.718;2023-08-06T14:26:42;1.77;;;1.67;;
11829;SDS011;5972;42.134;24.718;2023-08-06T14:29:10;2.05;;;1.80;;
11829;SDS011;5972;42.134;24.718;2023-08-06T14:31:38;2.20;;;1.90;;
11829;SDS011;5972;42.134;24.718;2023-08-06T14:34:05;1.92;;;1.67;;
11829;SDS011;5972;42.134;24.718;2023-08-06T14:36:32;4.88;;;2.00;;
11829;SDS011;5972;42.134;24.718;2023-08-06T14:38:59;1.80;;;1.70;;
11829;SDS011;5972;42.134;24.718;2023-08-06T14:41:26;2.03;;;1.92;;
11829;SDS011;5972;42.134;24.718;2023-08-06T14:43:53;1.83;;;1.73;;
11829;SDS011;5972;42.134;24.718;2023-08-06T14:46:21;2.08;;;1.95;;
11829;SDS011;5972;42.134;24.718;2023-08-06T14:48:48;2.60;;;2.00;;
11829;SDS011;5972;42.134;24.718;2023-08-06T14:51:15;2.30;;;2.10;;
11829;SDS011;5972;42.134;24.718;2023-08-06T14:53:44;2.33;;;2.20;;